Time;durP1;ratioP1;P1;durP2;ratioP2;P2;SDS_P1;SDS_P2;PMS_P1;PMS_P2;Temp;Humidity;BMP_temperature;BMP_pressure;BME280_temperature;BME280_humidity;BME280_pressure;Samples;Min_cycle;Max_cycle;Signal;HPM_P1;HPM_P2
2022/11/18 00:00:55;;;;;;;;;;;;;;;-143.57;100.00;51378.53;5073017;28;20363;-77
2022/11/18 00:03:22;;;;;;;;;;;;;;;-143.57;100.00;51374.56;5078321;28;19928;-78
2022/11/18 00:05:53;;;;;;;;;;;;;;;-143.57;100.00;51382.50;5076188;28;21361;-77
2022/11/18 00:08:20;;;;;;;;;;;;;;;-143.57;100.00;51410.34;5089800;28;19932;-78
2022/11/18 00:10:47;;;;;;;;;;;;;;;-143.57;100.00;51342.75;5077418;28;19931;-78
2022/11/18 00:16:01;;;;;;;;;;;;;;;-143.57;100.00;51408.34;5080950;28;19924;-78
2022/11/18 00:18:28;;;;;;;;;;;;;;;-143.57;100.00;51378.53;5088393;27;19928;-78
2022/11/18 00:20:59;;;;;;;;;;;;;;;-143.57;100.00;51354.66;5078101;28;19974;-78
2022/11/18 00:23:25;;;;;;;;;;;;;;;-143.57;100.00;51366.59;5081879;28;19989;-78
2022/11/18 00:25:52;;;;;;;;;;;;;;;-143.57;100.00;51390.47;5079817;28;19993;-77
2022/11/18 00:28:19;;;;;;;;;;;;;;;-143.57;100.00;51390.47;5084911;28;19920;-77
2022/11/18 00:30:45;;;;;;;;;;;;;;;-143.57;100.00;51374.56;5083730;28;19924;-77
2022/11/18 00:33:12;;;;;;;;;;;;;;;-143.57;100.00;51386.47;5081442;28;19928;-77
2022/11/18 00:35:39;;;;;;;;;;;;;;;-143.57;100.00;51362.63;5085055;28;19934;-78
2022/11/18 00:38:05;;;;;;;;;;;;;;;-143.57;100.00;51342.75;5080254;28;19963;-77
2022/11/18 00:40:32;;;;;;;;;;;;;;;-143.57;100.00;51366.59;5090405;28;19939;-78
2022/11/18 00:42:59;;;;;;;;;;;;;;;-143.57;100.00;51410.34;5086223;28;19939;-77
2022/11/18 00:45:26;;;;;;;;;;;;;;;-143.57;100.00;51390.47;5085120;28;19985;-78
2022/11/18 00:47:53;;;;;;;;;;;;;;;-143.57;100.00;51378.53;5084659;28;19955;-77
2022/11/18 00:50:20;;;;;;;;;;;;;;;-143.57;100.00;51354.66;5083851;28;19993;-78
2022/11/18 00:52:46;;;;;;;;;;;;;;;-143.57;100.00;51374.56;5089054;28;19964;-77
2022/11/18 00:55:13;;;;;;;;;;;;;;;-143.57;100.00;51362.63;5083809;28;20022;-77
2022/11/18 00:57:40;;;;;;;;;;;;;;;-143.57;100.00;51322.88;5083916;28;20021;-77
2022/11/18 01:00:08;;;;;;;;;;;;;;;-143.57;100.00;51374.56;5083801;28;19928;-77
2022/11/18 01:02:34;;;;;;;;;;;;;;;-143.57;100.00;51386.47;5071089;28;20520;-77
2022/11/18 01:05:01;;;;;;;;;;;;;;;-143.57;100.00;51382.50;5084848;28;19931;-77
2022/11/18 01:07:28;;;;;;;;;;;;;;;-143.57;100.00;51412.31;5083356;28;19928;-77
2022/11/18 01:09:56;;;;;;;;;;;;;;;-143.57;100.00;51404.38;5084390;28;19938;-78
2022/11/18 01:15:08;;;;;;;;;;;;;;;-143.57;100.00;51374.56;5088056;28;19927;-77
2022/11/18 01:17:35;;;;;;;;;;;;;;;-143.57;100.00;51376.53;5087920;28;19927;-77
2022/11/18 01:20:01;;;;;;;;;;;;;;;-143.57;100.00;51366.59;5085566;28;19929;-78
2022/11/18 01:22:28;;;;;;;;;;;;;;;-143.57;100.00;51366.59;5074636;28;19928;-77
2022/11/18 01:24:55;;;;;;;;;;;;;;;-143.57;100.00;51366.59;5085563;28;20988;-77
2022/11/18 01:27:22;;;;;;;;;;;;;;;-143.57;100.00;51362.63;5095369;28;19950;-77
2022/11/18 01:29:49;;;;;;;;;;;;;;;-143.57;100.00;51390.47;5109342;28;19924;-77
2022/11/18 01:32:15;;;;;;;;;;;;;;;-143.57;100.00;51378.53;5114214;28;19951;-77
2022/11/18 01:34:50;;;;;;;;;;;;;;;-143.57;100.00;51330.81;5114820;28;19923;-77
2022/11/18 01:37:17;;;;;;;;;;;;;;;-143.57;100.00;51400.41;5111586;28;19956;-78
2022/11/18 01:39:47;;;;;;;;;;;;;;;-143.57;100.00;51378.53;5098927;28;19932;-77
2022/11/18 01:42:14;;;;;;;;;;;;;;;-143.57;100.00;51338.78;5084687;28;19923;-77
2022/11/18 01:44:57;;;;;;;;;;;;;;;-143.57;100.00;51406.34;5094713;27;20018;-77
2022/11/18 01:47:39;;;;;;;;;;;;;;;-143.57;100.00;51378.53;5087253;28;20471;-77
2022/11/18 01:50:06;;;;;;;;;;;;;;;-143.57;100.00;51386.47;5098170;27;20365;-77
2022/11/18 01:52:34;;;;;;;;;;;;;;;-143.57;100.00;51418.28;5082598;28;19935;-77
2022/11/18 01:55:04;;;;;;;;;;;;;;;-143.57;100.00;51390.47;5086318;28;20015;-77
2022/11/18 01:57:31;;;;;;;;;;;;;;;-143.57;100.00;51374.56;5117324;27;20317;-77
2022/11/18 02:00:01;;;;;;;;;;;;;;;-143.57;100.00;51398.41;5085648;28;20019;-78
2022/11/18 02:02:31;;;;;;;;;;;;;;;-143.57;100.00;51358.66;5087399;28;19920;-77
2022/11/18 02:04:59;;;;;;;;;;;;;;;-143.57;100.00;51338.78;5080198;28;19924;-77
2022/11/18 02:07:26;;;;;;;;;;;;;;;-143.57;100.00;51374.56;5097249;27;19920;-77
2022/11/18 02:09:55;;;;;;;;;;;;;;;-143.57;100.00;51378.53;5063054;28;20639;-78
2022/11/18 02:12:22;;;;;;;;;;;;;;;-143.57;100.00;51364.63;5079491;28;19989;-77
2022/11/18 02:14:49;;;;;;;;;;;;;;;-143.57;100.00;51386.47;5078738;28;20547;-77
2022/11/18 02:17:36;;;;;;;;;;;;;;;-143.57;100.00;51330.81;5082700;28;19981;-77
2022/11/18 02:20:21;;;;;;;;;;;;;;;-143.57;100.00;51356.66;5083408;28;20698;-82
2022/11/18 02:23:07;;;;;;;;;;;;;;;-143.57;100.00;51374.56;5086566;28;19963;-77
2022/11/18 02:25:39;;;;;;;;;;;;;;;-143.57;100.00;51402.38;5085733;28;19924;-77
2022/11/18 02:28:18;;;;;;;;;;;;;;;-143.57;100.00;51358.66;5083899;28;20013;-77
2022/11/18 02:31:08;;;;;;;;;;;;;;;-143.57;100.00;51346.72;5079466;28;19935;-77
2022/11/18 02:33:55;;;;;;;;;;;;;;;-143.57;100.00;51368.59;5073920;28;19931;-77
2022/11/18 02:36:34;;;;;;;;;;;;;;;-143.57;100.00;51382.50;5072690;28;20439;-77
2022/11/18 02:39:06;;;;;;;;;;;;;;;-143.57;100.00;51346.72;5077007;28;19924;-78
2022/11/18 02:41:35;;;;;;;;;;;;;;;-143.57;100.00;51348.72;5056003;28;20033;-78
2022/11/18 02:44:04;;;;;;;;;;;;;;;-143.57;100.00;51346.72;5078752;28;20466;-77
2022/11/18 02:46:32;;;;;;;;;;;;;;;-143.57;100.00;51366.59;5090025;27;19933;-77
2022/11/18 02:49:05;;;;;;;;;;;;;;;-143.57;100.00;51360.63;5080494;28;20362;-78
2022/11/18 02:51:32;;;;;;;;;;;;;;;-143.57;100.00;51374.56;5075877;28;20333;-77
2022/11/18 02:54:02;;;;;;;;;;;;;;;-143.57;100.00;51362.63;5084915;28;19934;-78
2022/11/18 02:56:28;;;;;;;;;;;;;;;-143.57;100.00;51374.56;5077553;28;19946;-78
2022/11/18 02:58:56;;;;;;;;;;;;;;;-143.57;100.00;51382.50;5079703;28;19958;-78
2022/11/18 03:01:28;;;;;;;;;;;;;;;-143.57;100.00;51406.34;5073682;28;20016;-78
2022/11/18 03:03:55;;;;;;;;;;;;;;;-143.57;100.00;51394.44;5072001;28;19981;-78
2022/11/18 03:06:22;;;;;;;;;;;;;;;-143.57;100.00;51370.56;5086255;27;20726;-78
2022/11/18 03:08:51;;;;;;;;;;;;;;;-143.57;100.00;51386.47;5082103;28;19928;-78
2022/11/18 03:11:27;;;;;;;;;;;;;;;-143.57;100.00;51360.63;5080332;28;19928;-78
2022/11/18 03:14:12;;;;;;;;;;;;;;;-143.57;100.00;51410.34;5078168;28;19928;-78
2022/11/18 03:16:44;;;;;;;;;;;;;;;-143.57;100.00;51378.53;5071867;28;19928;-78
2022/11/18 03:19:14;;;;;;;;;;;;;;;-143.57;100.00;51390.47;5085495;28;19932;-78
2022/11/18 03:21:50;;;;;;;;;;;;;;;-143.57;100.00;51378.53;5075447;28;20396;-77
2022/11/18 03:24:24;;;;;;;;;;;;;;;-143.57;100.00;51410.34;5074950;28;19928;-78
2022/11/18 03:26:56;;;;;;;;;;;;;;;-143.57;100.00;51402.38;5074838;28;19939;-77
2022/11/18 03:29:33;;;;;;;;;;;;;;;-143.57;100.00;51412.31;5076038;28;20019;-77
2022/11/18 03:32:06;;;;;;;;;;;;;;;-143.57;100.00;51402.38;5080093;28;20604;-78
2022/11/18 03:34:36;;;;;;;;;;;;;;;-143.57;100.00;51416.28;5076453;28;20015;-78
2022/11/18 03:37:05;;;;;;;;;;;;;;;-143.57;100.00;51402.38;5079927;28;19998;-78
2022/11/18 03:39:38;;;;;;;;;;;;;;;-143.57;100.00;51402.38;5092724;27;19920;-78
2022/11/18 03:42:11;;;;;;;;;;;;;;;-143.57;100.00;51358.66;5076710;28;20364;-77
2022/11/18 03:44:40;;;;;;;;;;;;;;;-143.57;100.00;51356.66;5078952;28;20030;-77
2022/11/18 03:47:13;;;;;;;;;;;;;;;-143.57;100.00;51366.59;5083417;28;20453;-78
2022/11/18 03:49:49;;;;;;;;;;;;;;;-143.57;100.00;51418.28;5079838;28;20651;-78
2022/11/18 03:52:22;;;;;;;;;;;;;;;-143.57;100.00;51378.53;5103214;27;19931;-78
2022/11/18 03:54:50;;;;;;;;;;;;;;;-143.57;100.00;51378.53;5092232;28;19928;-78
2022/11/18 03:57:22;;;;;;;;;;;;;;;-143.57;100.00;51358.66;5109214;27;19934;-78
2022/11/18 03:59:58;;;;;;;;;;;;;;;-143.57;100.00;51378.53;5082731;28;20174;-78
2022/11/18 04:02:28;;;;;;;;;;;;;;;-143.57;100.00;51362.63;5076213;28;20749;-78
2022/11/18 04:04:56;;;;;;;;;;;;;;;-143.57;100.00;51400.41;5078629;28;20372;-78
2022/11/18 04:07:34;;;;;;;;;;;;;;;-143.57;100.00;51342.75;5063075;28;19987;-78
2022/11/18 04:10:01;;;;;;;;;;;;;;;-143.57;100.00;51426.25;5076774;28;19924;-77
2022/11/18 04:12:30;;;;;;;;;;;;;;;-143.57;100.00;51370.56;5079684;28;19996;-78
2022/11/18 04:14:57;;;;;;;;;;;;;;;-143.57;100.00;51384.50;5080364;28;20516;-78
2022/11/18 04:17:26;;;;;;;;;;;;;;;-143.57;100.00;51376.53;5078870;28;19932;-78
2022/11/18 04:19:53;;;;;;;;;;;;;;;-143.57;100.00;51378.53;5080403;28;20846;-78
2022/11/18 04:22:21;;;;;;;;;;;;;;;-143.57;100.00;51358.66;5080037;28;19924;-77
2022/11/18 04:24:48;;;;;;;;;;;;;;;-143.57;100.00;51374.56;5083573;28;19959;-78
2022/11/18 04:27:15;;;;;;;;;;;;;;;-143.57;100.00;51366.59;5081440;28;19924;-78
2022/11/18 04:29:41;;;;;;;;;;;;;;;-143.57;100.00;51362.63;5084651;28;19924;-77
2022/11/18 04:32:08;;;;;;;;;;;;;;;-143.57;100.00;51384.50;5082062;28;20006;-78
2022/11/18 04:34:35;;;;;;;;;;;;;;;-143.57;100.00;51358.66;5084629;28;20449;-77
2022/11/18 04:37:02;;;;;;;;;;;;;;;-143.57;100.00;51360.63;5080790;28;19924;-77
2022/11/18 04:39:29;;;;;;;;;;;;;;;-143.57;100.00;51402.38;5084683;28;19928;-77
2022/11/18 04:41:56;;;;;;;;;;;;;;;-143.57;100.00;51386.47;5087634;28;20034;-77
2022/11/18 04:44:24;;;;;;;;;;;;;;;-143.57;100.00;51398.41;5089780;28;19974;-78
2022/11/18 04:46:51;;;;;;;;;;;;;;;-143.57;100.00;51390.47;5100966;28;19924;-76
2022/11/18 04:49:18;;;;;;;;;;;;;;;-143.57;100.00;51374.56;5085788;28;19979;-77
2022/11/18 04:51:45;;;;;;;;;;;;;;;-143.57;100.00;51390.47;5080347;28;19924;-76
2022/11/18 04:54:13;;;;;;;;;;;;;;;-143.57;100.00;51356.66;5082751;28;19943;-77
2022/11/18 04:56:39;;;;;;;;;;;;;;;-143.57;100.00;51394.44;5082692;28;19939;-77
2022/11/18 04:59:15;;;;;;;;;;;;;;;-143.57;100.00;51382.50;5086161;28;19971;-77
2022/11/18 05:01:42;;;;;;;;;;;;;;;-143.57;100.00;51370.56;5089813;28;20421;-77
2022/11/18 05:04:13;;;;;;;;;;;;;;;-143.57;100.00;51406.34;5062666;28;20634;-77
2022/11/18 05:06:40;;;;;;;;;;;;;;;-143.57;100.00;51362.63;5083961;28;20014;-78
2022/11/18 05:09:07;;;;;;;;;;;;;;;-143.57;100.00;51398.41;5084141;28;19974;-77
2022/11/18 05:14:19;;;;;;;;;;;;;;;-143.57;100.00;51398.41;5083354;28;19932;-77
2022/11/18 05:16:47;;;;;;;;;;;;;;;-143.57;100.00;51376.53;5082442;28;19924;-77
2022/11/18 05:19:14;;;;;;;;;;;;;;;-143.57;100.00;51404.38;5079110;28;19931;-77
2022/11/18 05:21:41;;;;;;;;;;;;;;;-143.57;100.00;51394.44;5067745;28;20741;-78
2022/11/18 05:24:08;;;;;;;;;;;;;;;-143.57;100.00;51418.28;5085395;28;19928;-78
2022/11/18 05:26:35;;;;;;;;;;;;;;;-143.57;100.00;51386.47;5080398;28;19963;-79
2022/11/18 05:29:03;;;;;;;;;;;;;;;-143.57;100.00;51410.34;5104404;27;19943;-79
2022/11/18 05:31:29;;;;;;;;;;;;;;;-143.57;100.00;51402.38;5092018;27;19932;-79
2022/11/18 05:33:56;;;;;;;;;;;;;;;-143.57;100.00;51410.34;5084236;28;19928;-79
2022/11/18 05:36:23;;;;;;;;;;;;;;;-143.57;100.00;51390.47;5080602;28;19924;-79
2022/11/18 05:38:50;;;;;;;;;;;;;;;-143.57;100.00;51370.56;5085183;28;20372;-79
2022/11/18 05:44:03;;;;;;;;;;;;;;;-143.57;100.00;51370.56;5077793;28;19924;-79
2022/11/18 05:46:30;;;;;;;;;;;;;;;-143.57;100.00;51414.31;5073623;28;20051;-77
2022/11/18 05:48:57;;;;;;;;;;;;;;;-143.57;100.00;51358.66;5097149;27;20553;-76
2022/11/18 05:51:23;;;;;;;;;;;;;;;-143.57;100.00;51398.41;5079258;28;19925;-77
2022/11/18 05:53:51;;;;;;;;;;;;;;;-143.57;100.00;51374.56;5083946;28;20634;-73
2022/11/18 05:56:27;;;;;;;;;;;;;;;-143.57;100.00;51390.47;5083514;28;19936;-73
2022/11/18 05:58:54;;;;;;;;;;;;;;;-143.57;100.00;51370.56;5079741;28;20020;-76
2022/11/18 06:01:23;;;;;;;;;;;;;;;-143.57;100.00;51390.47;5078314;28;20733;-76
2022/11/18 06:03:50;;;;;;;;;;;;;;;-143.57;100.00;51392.44;5077882;28;20009;-76
2022/11/18 06:06:19;;;;;;;;;;;;;;;-143.57;100.00;51422.25;5077822;28;20504;-76
2022/11/18 06:09:15;;;;;;;;;;;;;;;-143.57;100.00;51422.25;5076547;28;20353;-76
2022/11/18 06:11:44;;;;;;;;;;;;;;;-143.57;100.00;51426.25;5067083;28;19924;-76
2022/11/18 06:14:16;;;;;;;;;;;;;;;-143.57;100.00;51446.13;5080336;28;19924;-77
2022/11/18 06:16:45;;;;;;;;;;;;;;;-143.57;100.00;51366.59;5075891;28;19940;-76
2022/11/18 06:19:12;;;;;;;;;;;;;;;-143.57;100.00;51450.09;5077362;28;20970;-76
2022/11/18 06:21:39;;;;;;;;;;;;;;;-143.57;100.00;51394.44;5078753;28;19935;-76
2022/11/18 06:24:08;;;;;;;;;;;;;;;-143.57;100.00;51374.56;5074231;28;19924;-76
2022/11/18 06:26:36;;;;;;;;;;;;;;;-143.57;100.00;51366.59;5082136;28;19932;-77
2022/11/18 06:29:05;;;;;;;;;;;;;;;-143.57;100.00;51434.19;5080913;28;19924;-77
2022/11/18 06:31:32;;;;;;;;;;;;;;;-143.57;100.00;51362.63;5083107;28;19928;-76
2022/11/18 06:33:58;;;;;;;;;;;;;;;-143.57;100.00;51414.31;5083703;28;19925;-76
2022/11/18 06:36:25;;;;;;;;;;;;;;;-143.57;100.00;51392.44;5081330;28;20459;-77
2022/11/18 06:38:52;;;;;;;;;;;;;;;-143.57;100.00;51362.63;5085468;28;19931;-77
2022/11/18 06:41:19;;;;;;;;;;;;;;;-143.57;100.00;51402.38;5077601;28;20497;-77
2022/11/18 06:43:46;;;;;;;;;;;;;;;-143.57;100.00;51394.44;5081880;28;19981;-77
2022/11/18 06:49:00;;;;;;;;;;;;;;;-143.57;100.00;51398.41;5083083;28;19952;-77
2022/11/18 06:51:27;;;;;;;;;;;;;;;-143.57;100.00;51394.44;5078860;28;19925;-77
2022/11/18 06:53:54;;;;;;;;;;;;;;;-143.57;100.00;51398.41;5086357;28;19954;-78
2022/11/18 06:56:21;;;;;;;;;;;;;;;-143.57;100.00;51402.38;5090944;27;19967;-77
2022/11/18 06:58:51;;;;;;;;;;;;;;;-143.57;100.00;51386.47;5064894;28;19959;-77
2022/11/18 07:01:22;;;;;;;;;;;;;;;-143.57;100.00;51398.41;5078342;28;20034;-77
2022/11/18 07:03:49;;;;;;;;;;;;;;;-143.57;100.00;51414.31;5081499;28;19930;-77
2022/11/18 07:06:17;;;;;;;;;;;;;;;-143.57;100.00;51390.47;5076872;28;20125;-77
2022/11/18 07:08:44;;;;;;;;;;;;;;;-143.57;100.00;51378.53;5110522;27;19977;-77
2022/11/18 07:11:12;;;;;;;;;;;;;;;-143.57;100.00;51422.25;5080558;28;19939;-77
2022/11/18 07:13:40;;;;;;;;;;;;;;;-143.57;100.00;51382.50;5110689;27;19924;-78
2022/11/18 07:16:13;;;;;;;;;;;;;;;-143.57;100.00;51378.53;5077315;28;19985;-78
2022/11/18 07:18:41;;;;;;;;;;;;;;;-143.57;100.00;51394.44;5098501;27;19931;-77
2022/11/18 07:21:09;;;;;;;;;;;;;;;-143.57;100.00;51392.44;5082839;28;19928;-78
2022/11/18 07:23:36;;;;;;;;;;;;;;;-143.57;100.00;51398.41;5078062;28;21351;-77
2022/11/18 07:26:03;;;;;;;;;;;;;;;-143.57;100.00;51404.38;5082860;28;20049;-77
2022/11/18 07:28:30;;;;;;;;;;;;;;;-143.57;100.00;51390.47;5077052;28;20651;-77
2022/11/18 07:31:01;;;;;;;;;;;;;;;-143.57;100.00;51414.31;5109066;27;19932;-77
2022/11/18 07:33:28;;;;;;;;;;;;;;;-143.57;100.00;51406.34;5081231;28;19928;-78
2022/11/18 07:35:55;;;;;;;;;;;;;;;-143.57;100.00;51390.47;5081648;28;19935;-78
2022/11/18 07:38:21;;;;;;;;;;;;;;;-143.57;100.00;51382.50;5080302;28;19931;-78
2022/11/18 07:40:48;;;;;;;;;;;;;;;-143.57;100.00;51418.28;5083402;28;20371;-77
2022/11/18 07:43:15;;;;;;;;;;;;;;;-143.57;100.00;51382.50;5085918;28;20776;-78
2022/11/18 07:45:44;;;;;;;;;;;;;;;-143.57;100.00;51380.50;5084411;28;21450;-77
2022/11/18 07:48:10;;;;;;;;;;;;;;;-143.57;100.00;51366.59;5106680;27;19936;-77
2022/11/18 07:50:37;;;;;;;;;;;;;;;-143.57;100.00;51418.28;5081348;28;20605;-78
2022/11/18 07:53:09;;;;;;;;;;;;;;;-143.57;100.00;51402.38;5069437;28;19928;-78
2022/11/18 07:55:36;;;;;;;;;;;;;;;-143.57;100.00;51442.16;5090623;28;19932;-77
2022/11/18 07:58:03;;;;;;;;;;;;;;;-143.57;100.00;51426.25;5088502;28;19995;-77
2022/11/18 08:00:30;;;;;;;;;;;;;;;-143.57;100.00;51394.44;5088034;28;20112;-77
2022/11/18 08:02:57;;;;;;;;;;;;;;;-143.57;100.00;51378.53;5083333;28;20074;-77
2022/11/18 08:05:24;;;;;;;;;;;;;;;-143.57;100.00;51380.50;5079940;28;20440;-77
2022/11/18 08:07:51;;;;;;;;;;;;;;;-143.57;100.00;51398.41;5087868;28;20019;-77
2022/11/18 08:10:17;;;;;;;;;;;;;;;-143.57;100.00;51426.25;5085665;28;20565;-77
2022/11/18 08:12:44;;;;;;;;;;;;;;;-143.57;100.00;51398.41;5083348;28;20032;-78
2022/11/18 08:15:13;;;;;;;;;;;;;;;-143.57;100.00;51426.25;5084591;28;19960;-78
2022/11/18 08:17:40;;;;;;;;;;;;;;;-143.57;100.00;51426.25;5077946;28;20440;-77
2022/11/18 08:20:07;;;;;;;;;;;;;;;-143.57;100.00;51430.22;5078247;28;19936;-77
2022/11/18 08:22:34;;;;;;;;;;;;;;;-143.57;100.00;51422.25;5091429;28;19924;-77
2022/11/18 08:25:01;;;;;;;;;;;;;;;-143.57;100.00;51418.28;5079761;28;19927;-78
2022/11/18 08:27:28;;;;;;;;;;;;;;;-143.57;100.00;51390.47;5079777;28;19932;-72
2022/11/18 08:29:54;;;;;;;;;;;;;;;-143.57;100.00;51406.34;5084603;28;19966;-72
2022/11/18 08:32:21;;;;;;;;;;;;;;;-143.57;100.00;51402.38;5075881;28;20595;-72
2022/11/18 08:34:47;;;;;;;;;;;;;;;-143.57;100.00;51400.41;5081591;28;19934;-72
2022/11/18 08:37:14;;;;;;;;;;;;;;;-143.57;100.00;51390.47;5075652;28;20018;-72
2022/11/18 08:39:41;;;;;;;;;;;;;;;-143.57;100.00;51412.31;5080328;28;19928;-73
2022/11/18 08:42:08;;;;;;;;;;;;;;;-143.57;100.00;51410.34;5079471;28;19931;-72
2022/11/18 08:44:35;;;;;;;;;;;;;;;-143.57;100.00;51402.38;5083686;28;20016;-72
2022/11/18 08:47:02;;;;;;;;;;;;;;;-143.57;100.00;51440.16;5080398;28;19924;-73
2022/11/18 08:49:29;;;;;;;;;;;;;;;-143.57;100.00;51446.13;5084937;28;20055;-76
2022/11/18 08:51:58;;;;;;;;;;;;;;;-143.57;100.00;51392.44;5111070;27;19942;-74
2022/11/18 08:54:24;;;;;;;;;;;;;;;-143.57;100.00;51428.22;5078714;28;21226;-74
2022/11/18 08:56:51;;;;;;;;;;;;;;;-143.57;100.00;51418.28;5080221;28;19935;-74
2022/11/18 08:59:18;;;;;;;;;;;;;;;-143.57;100.00;51410.34;5077810;28;20501;-73
2022/11/18 09:01:45;;;;;;;;;;;;;;;-143.57;100.00;51398.41;5082115;28;19928;-73
2022/11/18 09:04:12;;;;;;;;;;;;;;;-143.57;100.00;51418.28;5080561;28;20034;-73
2022/11/18 09:06:39;;;;;;;;;;;;;;;-143.57;100.00;51402.38;5079807;28;19938;-73
2022/11/18 09:09:07;;;;;;;;;;;;;;;-143.57;100.00;51442.16;5080709;28;19939;-73
2022/11/18 09:11:34;;;;;;;;;;;;;;;-143.57;100.00;51418.28;5082041;28;20031;-73
2022/11/18 09:14:01;;;;;;;;;;;;;;;-143.57;100.00;51378.53;5080713;28;20509;-73
2022/11/18 09:16:47;;;;;;;;;;;;;;;-143.57;100.00;51402.38;5080237;28;19932;-73
2022/11/18 09:19:15;;;;;;;;;;;;;;;-143.57;100.00;51374.56;5078786;28;19928;-75
2022/11/18 09:22:02;;;;;;;;;;;;;;;-143.57;100.00;51422.25;5078100;28;20376;-75
2022/11/18 09:24:28;;;;;;;;;;;;;;;-143.57;100.00;51414.31;5077957;28;20679;-73
2022/11/18 09:26:55;;;;;;;;;;;;;;;-143.57;100.00;51420.28;5078636;28;20436;-73
2022/11/18 09:29:25;;;;;;;;;;;;;;;-143.57;100.00;51426.25;5082225;28;19932;-73
2022/11/18 09:31:52;;;;;;;;;;;;;;;-143.57;100.00;51420.28;5082081;28;20360;-72
2022/11/18 09:34:19;;;;;;;;;;;;;;;-143.57;100.00;51378.53;5085120;28;20014;-73
2022/11/18 09:36:46;;;;;;;;;;;;;;;-143.57;100.00;51386.47;5078855;28;19935;-72
2022/11/18 09:39:12;;;;;;;;;;;;;;;-143.57;100.00;51346.72;5083671;28;19935;-73
2022/11/18 09:42:11;;;;;;;;;;;;;;;-143.57;100.00;51402.38;5082537;28;19936;-72
2022/11/18 09:44:44;;;;;;;;;;;;;;;-143.57;100.00;51394.44;5032078;28;19936;-73
2022/11/18 09:47:30;;;;;;;;;;;;;;;-143.57;100.00;51394.44;5079139;28;19928;-73
2022/11/18 09:49:59;;;;;;;;;;;;;;;-143.57;100.00;51374.56;5083077;28;19924;-73
2022/11/18 09:52:49;;;;;;;;;;;;;;;-143.57;100.00;51410.34;5101470;27;20030;-73
2022/11/18 09:55:17;;;;;;;;;;;;;;;-143.57;100.00;51422.25;5087061;28;19967;-73
2022/11/18 09:57:45;;;;;;;;;;;;;;;-143.57;100.00;51422.25;5082393;28;20008;-73
2022/11/18 10:00:13;;;;;;;;;;;;;;;-143.57;100.00;51422.25;5082974;28;19988;-73
2022/11/18 10:02:52;;;;;;;;;;;;;;;-143.57;100.00;51410.34;5080372;28;19981;-74
2022/11/18 10:05:23;;;;;;;;;;;;;;;-143.57;100.00;51402.38;5086523;28;20428;-74
2022/11/18 10:07:53;;;;;;;;;;;;;;;-143.57;100.00;51370.56;5082151;28;20065;-71
2022/11/18 10:10:26;;;;;;;;;;;;;;;-143.57;100.00;51400.41;5079451;28;19927;-72
2022/11/18 10:13:04;;;;;;;;;;;;;;;-143.57;100.00;51402.38;5083144;28;19933;-72
2022/11/18 10:15:42;;;;;;;;;;;;;;;-143.57;100.00;51410.34;5084703;28;19928;-72
2022/11/18 10:18:27;;;;;;;;;;;;;;;-143.57;100.00;51396.41;5082055;28;19928;-76
2022/11/18 10:21:33;;;;;;;;;;;;;;;-143.57;100.00;51374.56;5078817;28;19932;-72
2022/11/18 10:24:09;;;;;;;;;;;;;;;-143.57;100.00;51418.28;5079540;28;19959;-72
2022/11/18 10:26:37;;;;;;;;;;;;;;;-143.57;100.00;51410.34;5081804;28;20012;-71
2022/11/18 10:29:08;;;;;;;;;;;;;;;-143.57;100.00;51410.34;5082699;28;19924;-72
2022/11/18 10:31:36;;;;;;;;;;;;;;;-143.57;100.00;51410.34;5083484;28;19936;-71
2022/11/18 10:34:03;;;;;;;;;;;;;;;-143.57;100.00;51374.56;5078344;28;19982;-71
2022/11/18 10:36:32;;;;;;;;;;;;;;;-143.57;100.00;51388.47;5084116;28;20336;-72
2022/11/18 10:39:05;;;;;;;;;;;;;;;-143.57;100.00;51382.50;5084313;28;19989;-72
2022/11/18 10:41:37;;;;;;;;;;;;;;;-143.57;100.00;51394.44;5082194;28;19928;-72
2022/11/18 10:44:04;;;;;;;;;;;;;;;-143.57;100.00;51398.41;5083480;28;19947;-72
2022/11/18 10:46:40;;;;;;;;;;;;;;;-143.57;100.00;51374.56;5082568;28;20020;-72
2022/11/18 10:49:07;;;;;;;;;;;;;;;-143.57;100.00;51406.34;5083476;28;19934;-72
2022/11/18 10:51:34;;;;;;;;;;;;;;;-143.57;100.00;51370.56;5080311;28;19924;-71
2022/11/18 10:54:08;;;;;;;;;;;;;;;-143.57;100.00;51402.38;5078427;28;19958;-72
2022/11/18 10:56:44;;;;;;;;;;;;;;;-143.57;100.00;51394.44;5080247;28;20003;-72
2022/11/18 10:59:27;;;;;;;;;;;;;;;-143.57;100.00;51408.34;5083684;28;20124;-72
2022/11/18 11:01:58;;;;;;;;;;;;;;;-143.57;100.00;51394.44;5080872;28;20548;-72
2022/11/18 11:04:29;;;;;;;;;;;;;;;-143.57;100.00;51414.31;5079909;28;19927;-71
2022/11/18 11:06:57;;;;;;;;;;;;;;;-143.57;100.00;51414.31;5081004;28;19935;-71
2022/11/18 11:09:26;;;;;;;;;;;;;;;-143.57;100.00;51406.34;5083594;28;20576;-71
2022/11/18 11:12:11;;;;;;;;;;;;;;;-143.57;100.00;51402.38;5087531;28;19994;-71
2022/11/18 11:14:55;;;;;;;;;;;;;;;-143.57;100.00;51382.50;5110516;27;20671;-73
2022/11/18 11:17:36;;;;;;;;;;;;;;;-143.57;100.00;51442.16;5077404;28;20546;-77
2022/11/18 11:20:16;;;;;;;;;;;;;;;-143.57;100.00;51402.38;5081581;28;20332;-73
2022/11/18 11:22:44;;;;;;;;;;;;;;;-143.57;100.00;51378.53;5077635;28;19923;-73
2022/11/18 11:25:15;;;;;;;;;;;;;;;-143.57;100.00;51396.41;5078061;28;19926;-73
2022/11/18 11:27:51;;;;;;;;;;;;;;;-143.57;100.00;51406.34;5076087;28;19978;-73
2022/11/18 11:30:46;;;;;;;;;;;;;;;-143.57;100.00;51358.66;5078706;28;19928;-73
2022/11/18 11:33:29;;;;;;;;;;;;;;;-143.57;100.00;51374.56;5072721;28;19992;-74
2022/11/18 11:35:59;;;;;;;;;;;;;;;-143.57;100.00;51394.44;5078538;28;19959;-79
2022/11/18 11:38:45;;;;;;;;;;;;;;;-143.57;100.00;51348.72;5082778;27;19932;-74
2022/11/18 11:41:12;;;;;;;;;;;;;;;-143.57;100.00;51358.66;5079886;28;20026;-74
2022/11/18 11:43:48;;;;;;;;;;;;;;;-143.57;100.00;51392.44;5071305;28;20186;-74
2022/11/18 11:46:14;;;;;;;;;;;;;;;-143.57;100.00;51394.44;5081022;28;19924;-74
2022/11/18 11:48:51;;;;;;;;;;;;;;;-143.57;100.00;51354.66;5077473;28;20623;-74
2022/11/18 11:51:29;;;;;;;;;;;;;;;-143.57;100.00;51404.38;5089739;27;19933;-73
2022/11/18 11:54:05;;;;;;;;;;;;;;;-143.57;100.00;51342.75;5074901;28;20622;-74
2022/11/18 11:56:47;;;;;;;;;;;;;;;-143.57;100.00;51394.44;5076765;28;19989;-76
2022/11/18 11:59:47;;;;;;;;;;;;;;;-143.57;100.00;51370.56;5074948;28;19935;-76
2022/11/18 12:02:13;;;;;;;;;;;;;;;-143.57;100.00;51374.56;5060192;28;20398;-76
2022/11/18 12:04:50;;;;;;;;;;;;;;;-143.57;100.00;51370.56;5076081;28;20028;-76
2022/11/18 12:07:19;;;;;;;;;;;;;;;-143.57;100.00;51346.72;5078738;28;20393;-76
2022/11/18 12:10:07;;;;;;;;;;;;;;;-143.57;100.00;51376.53;5082545;28;19995;-76
2022/11/18 12:12:45;;;;;;;;;;;;;;;-143.57;100.00;51348.72;5083202;28;19924;-76
2022/11/18 12:15:15;;;;;;;;;;;;;;;-143.57;100.00;51342.75;5079229;28;19924;-76
2022/11/18 12:17:47;;;;;;;;;;;;;;;-143.57;100.00;51350.69;5085144;28;19964;-78
2022/11/18 12:20:32;;;;;;;;;;;;;;;-143.57;100.00;51354.66;5084284;28;20424;-74
2022/11/18 12:23:10;;;;;;;;;;;;;;;-143.57;100.00;51362.63;5084136;28;19970;-75
2022/11/18 12:25:43;;;;;;;;;;;;;;;-143.57;100.00;51366.59;5082778;28;19985;-75
2022/11/18 12:28:10;;;;;;;;;;;;;;;-143.57;100.00;51394.44;5081636;28;19924;-73
2022/11/18 12:30:36;;;;;;;;;;;;;;;-143.57;100.00;51390.47;5083933;28;20127;-73
2022/11/18 12:33:03;;;;;;;;;;;;;;;-143.57;100.00;51358.66;5084314;28;19963;-73
2022/11/18 12:35:34;;;;;;;;;;;;;;;-143.57;100.00;51338.78;5091181;28;19921;-74
2022/11/18 12:38:01;;;;;;;;;;;;;;;-143.57;100.00;51350.69;5080036;28;20392;-74
2022/11/18 12:40:39;;;;;;;;;;;;;;;-143.57;100.00;51406.34;5080815;28;20306;-75
2022/11/18 12:43:47;;;;;;;;;;;;;;;-143.57;100.00;51362.63;5084088;28;19927;-74
2022/11/18 12:46:33;;;;;;;;;;;;;;;-143.57;100.00;51370.56;5073295;28;19931;-74
2022/11/18 12:49:18;;;;;;;;;;;;;;;-143.57;100.00;51362.63;5080785;28;19928;-75